East Quogue, New York
Current Conditions -  °F | °C
As of 6:53 AM on Tuesday 27 Jan 2015 (Local Time) from KFOK Reporting Station
Moderate Fog Moderate Fog  
Wind Chill:   Ceiling: 500
Heat Index: 20°   Visibility: 0.5mi
Dew Point: 17°   Wind: 18mph
Humidity: 89%   Direction: 350°N
Pressure: 29.54"   Gusts: NA
Location:  40.85°N, 72.58°W
Report Text: KFOK 271153Z 35016KT 1/2SM FZFG VV005 M07/M08 A2954 RMK AO2 SLP002 60002 70026 T10671083 11039 21067 55003 PWINO FZRANO $
Loading
Personal Weather Stations






























Interactive Weather Map New forecast layout! Learn more

10-Day Weather Forecast

Advertisements
Track Severe Weather on mobile